Time;durP1;ratioP1;P1;durP2;ratioP2;P2;SDS_P1;SDS_P2;PMS_P1;PMS_P2;Temp;Humidity;BMP_temperature;BMP_pressure;BME280_temperature;BME280_humidity;BME280_pressure;Samples;Min_cycle;Max_cycle;Signal;HPM_P1;HPM_P2
2023/08/18 00:01:17;;;;;;;4.43;3.08;;;19.30;91.70;;;;;;5016243;28;20501;-78
2023/08/18 00:03:43;;;;;;;4.47;2.47;;;19.30;91.70;;;;;;4998471;28;20068;-78
2023/08/18 00:06:09;;;;;;;4.22;2.70;;;19.30;91.60;;;;;;4998733;28;20120;-78
2023/08/18 00:08:34;;;;;;;4.72;2.92;;;19.30;91.70;;;;;;4998404;28;20117;-78
2023/08/18 00:11:01;;;;;;;4.93;2.55;;;19.20;91.70;;;;;;4982017;28;20062;-78
2023/08/18 00:13:26;;;;;;;4.88;2.60;;;19.20;92.00;;;;;;4998688;28;20192;-77
2023/08/18 00:15:52;;;;;;;3.95;2.17;;;19.20;91.80;;;;;;5015765;28;20028;-78
2023/08/18 00:18:18;;;;;;;3.95;2.45;;;19.20;91.80;;;;;;5015779;28;20048;-78
2023/08/18 00:20:43;;;;;;;5.72;3.00;;;19.20;91.80;;;;;;5015690;28;20030;-78
2023/08/18 00:23:09;;;;;;;6.57;3.58;;;19.20;91.90;;;;;;4998228;28;20034;-78
2023/08/18 00:25:35;;;;;;;5.25;3.40;;;19.20;91.90;;;;;;4981167;28;20153;-78
2023/08/18 00:28:00;;;;;;;5.28;3.40;;;19.20;91.90;;;;;;4998129;28;20033;-78
2023/08/18 00:30:26;;;;;;;6.45;3.60;;;19.20;92.00;;;;;;4965634;28;20129;-78
2023/08/18 00:32:52;;;;;;;5.55;3.38;;;19.10;92.00;;;;;;5015536;28;20026;-78
2023/08/18 00:35:17;;;;;;;5.13;3.90;;;19.10;92.00;;;;;;4981734;28;20472;-78
2023/08/18 00:37:44;;;;;;;6.78;2.85;;;19.10;92.00;;;;;;4997794;28;20030;-78
2023/08/18 00:40:11;;;;;;;6.95;3.20;;;19.10;92.00;;;;;;5014117;28;20021;-78
2023/08/18 00:42:37;;;;;;;4.57;2.83;;;19.10;92.10;;;;;;5013989;28;20033;-78
2023/08/18 00:45:03;;;;;;;3.97;2.67;;;19.00;92.40;;;;;;4997809;28;20029;-78
2023/08/18 00:47:29;;;;;;;6.75;2.95;;;19.00;92.20;;;;;;4997594;28;20386;-78
2023/08/18 00:49:57;;;;;;;3.90;2.47;;;19.00;92.20;;;;;;5015108;28;20038;-78
2023/08/18 00:52:23;;;;;;;6.78;3.60;;;19.00;92.20;;;;;;4997243;28;20046;-78
2023/08/18 00:54:51;;;;;;;5.53;2.75;;;19.00;92.20;;;;;;4997467;28;20026;-78
2023/08/18 00:57:17;;;;;;;5.80;3.97;;;19.00;92.50;;;;;;5013651;28;20101;-78
2023/08/18 00:59:43;;;;;;;5.78;3.40;;;19.00;92.30;;;;;;4981542;28;20034;-78
2023/08/18 01:02:09;;;;;;;4.55;2.55;;;19.00;92.40;;;;;;4997707;28;20032;-78
2023/08/18 01:04:35;;;;;;;4.65;2.85;;;19.00;92.40;;;;;;4997431;28;20466;-78
2023/08/18 01:07:01;;;;;;;7.30;3.30;;;18.90;92.40;;;;;;5013395;28;20029;-78
2023/08/18 01:09:28;;;;;;;5.43;3.30;;;18.90;92.40;;;;;;4997145;28;20021;-78
2023/08/18 01:11:57;;;;;;;3.05;2.03;;;18.90;92.40;;;;;;4981054;28;20172;-78
2023/08/18 01:14:41;;;;;;;6.72;2.95;;;18.90;92.40;;;;;;5013622;28;20097;-78
2023/08/18 01:17:12;;;;;;;4.47;2.88;;;18.90;92.40;;;;;;5013445;28;20091;-78
2023/08/18 01:19:38;;;;;;;4.55;3.28;;;18.90;92.40;;;;;;5013393;28;20025;-77
2023/08/18 01:22:11;;;;;;;3.75;2.42;;;18.90;92.50;;;;;;5013401;28;20478;-78
2023/08/18 01:24:41;;;;;;;4.50;2.93;;;18.90;92.40;;;;;;5013325;28;20382;-77
2023/08/18 01:27:07;;;;;;;4.70;3.08;;;18.80;92.50;;;;;;5014741;28;20288;-78
2023/08/18 01:29:33;;;;;;;4.38;2.90;;;18.80;92.50;;;;;;5014448;28;20041;-78
2023/08/18 01:32:02;;;;;;;4.13;2.85;;;18.80;92.60;;;;;;4996989;28;20037;-78
2023/08/18 01:34:29;;;;;;;5.50;2.63;;;18.80;92.70;;;;;;5014434;28;20044;-78
2023/08/18 01:36:57;;;;;;;4.18;2.88;;;18.80;92.70;;;;;;4996568;28;20030;-78
2023/08/18 01:39:25;;;;;;;3.88;2.63;;;18.70;92.70;;;;;;4996643;28;20029;-78
2023/08/18 01:41:52;;;;;;;5.32;3.55;;;18.70;92.80;;;;;;5014257;28;20418;-77
2023/08/18 01:44:21;;;;;;;4.63;3.25;;;18.80;92.90;;;;;;4996469;28;20026;-78
2023/08/18 01:46:46;;;;;;;5.95;3.70;;;18.80;92.80;;;;;;5014320;28;20490;-78
2023/08/18 01:49:13;;;;;;;4.97;3.10;;;18.70;92.80;;;;;;5014228;28;20033;-78
2023/08/18 01:51:39;;;;;;;4.55;3.00;;;18.70;92.80;;;;;;4980049;28;20100;-78
2023/08/18 01:54:05;;;;;;;5.28;3.65;;;18.70;92.90;;;;;;5012870;28;20029;-78
2023/08/18 01:56:30;;;;;;;7.05;3.10;;;18.70;92.90;;;;;;5013934;28;20041;-78
2023/08/18 01:58:56;;;;;;;5.28;3.33;;;18.70;92.90;;;;;;4980125;28;20252;-77
2023/08/18 02:01:22;;;;;;;4.72;2.95;;;18.70;92.90;;;;;;4980109;28;20032;-78
2023/08/18 02:03:47;;;;;;;5.32;3.60;;;18.70;92.90;;;;;;4980239;28;20088;-78
2023/08/18 02:06:15;;;;;;;6.10;3.33;;;18.70;93.00;;;;;;4979881;28;20030;-78
2023/08/18 02:08:40;;;;;;;7.57;3.40;;;18.60;93.00;;;;;;5013713;28;20379;-78
2023/08/18 02:11:06;;;;;;;5.57;3.25;;;18.60;93.00;;;;;;4980270;28;20034;-78
2023/08/18 02:13:32;;;;;;;6.18;3.00;;;18.70;93.00;;;;;;5013776;28;20088;-78
2023/08/18 02:15:58;;;;;;;4.88;3.15;;;18.60;93.10;;;;;;5013869;28;20029;-78
2023/08/18 02:18:24;;;;;;;4.97;3.08;;;18.60;93.10;;;;;;4979948;28;20032;-78
2023/08/18 02:20:58;;;;;;;3.92;2.92;;;18.60;93.10;;;;;;5012429;28;20048;-77
2023/08/18 02:23:23;;;;;;;;;;;18.60;93.10;;;;;;5012781;28;20064;-78
2023/08/18 02:25:50;;;;;;;4.45;2.83;;;18.60;93.20;;;;;;5012383;28;19905;-78
2023/08/18 02:28:18;;;;;;;6.80;2.58;;;18.60;93.10;;;;;;4996131;28;20034;-78
2023/08/18 02:30:44;;;;;;;6.55;3.00;;;18.60;93.10;;;;;;5012245;28;20026;-78
2023/08/18 02:33:10;;;;;;;5.03;3.05;;;18.50;93.40;;;;;;4995977;28;20087;-78
2023/08/18 02:35:35;;;;;;;5.40;3.60;;;18.50;93.10;;;;;;4996067;28;20056;-78
2023/08/18 02:38:01;;;;;;;4.10;2.60;;;18.50;93.20;;;;;;4979621;28;20022;-78
2023/08/18 02:40:28;;;;;;;5.03;2.63;;;18.50;93.30;;;;;;5012230;28;20034;-77
2023/08/18 02:42:54;;;;;;;7.60;3.45;;;18.50;93.60;;;;;;4995960;28;20161;-78
2023/08/18 02:45:19;;;;;;;5.90;2.90;;;18.50;93.40;;;;;;5013454;28;20109;-78
2023/08/18 02:47:45;;;;;;;4.03;2.80;;;18.50;93.40;;;;;;5012224;28;20095;-78
2023/08/18 02:50:11;;;;;;;5.13;3.25;;;18.50;93.40;;;;;;4982882;28;20034;-77
2023/08/18 02:52:36;;;;;;;6.13;3.10;;;18.50;93.40;;;;;;4999596;28;20508;-78
2023/08/18 02:55:02;;;;;;;4.10;2.90;;;18.50;93.40;;;;;;4983499;28;20478;-78
2023/08/18 02:57:28;;;;;;;7.25;3.67;;;18.50;93.40;;;;;;4983494;28;20382;-77
2023/08/18 02:59:54;;;;;;;5.55;3.80;;;18.50;93.40;;;;;;4983420;28;20034;-78
2023/08/18 03:02:20;;;;;;;6.20;3.45;;;18.50;93.40;;;;;;4999577;28;20030;-77
2023/08/18 03:04:45;;;;;;;6.13;3.45;;;18.40;93.50;;;;;;4983773;28;20129;-77
2023/08/18 03:07:11;;;;;;;6.10;4.03;;;18.40;93.50;;;;;;4999605;28;20062;-78
2023/08/18 03:09:36;;;;;;;6.05;3.95;;;18.50;93.50;;;;;;4983215;28;20040;-77
2023/08/18 03:12:02;;;;;;;6.78;4.40;;;18.50;93.50;;;;;;4999522;28;20033;-78
2023/08/18 03:14:28;;;;;;;5.70;3.85;;;18.50;93.80;;;;;;4999604;28;20018;-78
2023/08/18 03:16:53;;;;;;;7.15;3.88;;;18.40;93.50;;;;;;4983064;28;20482;-78
2023/08/18 03:19:19;;;;;;;6.38;4.20;;;18.40;93.60;;;;;;4983102;28;20022;-78
2023/08/18 03:21:44;;;;;;;7.40;3.58;;;18.40;93.70;;;;;;4999203;28;20485;-78
2023/08/18 03:24:10;;;;;;;6.90;4.13;;;18.40;93.70;;;;;;4983355;28;20433;-78
2023/08/18 03:26:36;;;;;;;6.45;4.40;;;18.40;93.70;;;;;;4982876;28;20060;-78
2023/08/18 03:29:01;;;;;;;8.25;4.78;;;18.40;93.70;;;;;;4982720;28;20030;-78
2023/08/18 03:31:27;;;;;;;5.90;3.78;;;18.40;93.80;;;;;;5015258;28;20030;-78
2023/08/18 03:33:52;;;;;;;8.07;4.90;;;18.40;93.80;;;;;;4982750;28;20059;-78
2023/08/18 03:36:18;;;;;;;7.68;4.70;;;18.40;93.90;;;;;;4982738;28;20501;-77
2023/08/18 03:38:44;;;;;;;8.02;4.75;;;18.40;94.00;;;;;;4982839;28;20034;-78
2023/08/18 03:41:10;;;;;;;7.65;5.00;;;18.40;94.00;;;;;;4998818;28;20037;-78
2023/08/18 03:43:35;;;;;;;7.53;4.75;;;18.40;94.20;;;;;;4982590;28;20030;-77
2023/08/18 03:46:25;;;;;;;7.88;4.68;;;18.40;94.00;;;;;;4998953;28;20029;-78
2023/08/18 03:48:51;;;;;;;9.85;5.55;;;18.40;94.00;;;;;;5015023;28;20360;-77
2023/08/18 03:51:17;;;;;;;7.53;5.43;;;18.40;94.00;;;;;;4998586;28;20099;-78
2023/08/18 03:53:43;;;;;;;8.95;5.38;;;18.40;94.00;;;;;;4982429;28;20042;-77
2023/08/18 03:56:09;;;;;;;9.23;5.32;;;18.40;94.00;;;;;;5014931;28;20022;-77
2023/08/18 03:58:35;;;;;;;7.93;5.35;;;18.40;94.10;;;;;;4982270;28;20049;-78
2023/08/18 04:01:07;;;;;;;8.07;5.10;;;18.40;94.10;;;;;;4982139;28;20050;-78
2023/08/18 04:03:43;;;;;;;8.88;5.15;;;18.40;94.10;;;;;;5014738;28;20470;-78
2023/08/18 04:06:12;;;;;;;7.90;5.55;;;18.40;94.20;;;;;;4998759;28;20026;-78
2023/08/18 04:08:43;;;;;;;8.10;5.75;;;18.30;94.20;;;;;;5014585;28;20033;-77
2023/08/18 04:11:10;;;;;;;8.88;6.07;;;18.40;94.30;;;;;;5014650;28;20037;-77
2023/08/18 04:13:36;;;;;;;7.47;5.45;;;18.40;94.40;;;;;;4998302;28;20486;-78
2023/08/18 04:16:02;;;;;;;13.10;7.10;;;18.40;94.40;;;;;;4998357;28;20052;-78
2023/08/18 04:18:28;;;;;;;11.48;7.65;;;18.40;94.40;;;;;;4998412;28;20470;-78
2023/08/18 04:20:54;;;;;;;10.27;7.40;;;18.40;94.40;;;;;;5015910;28;20026;-78
2023/08/18 04:23:20;;;;;;;9.65;6.50;;;18.40;94.40;;;;;;4998104;28;20032;-77
2023/08/18 04:25:45;;;;;;;9.40;6.63;;;18.40;94.50;;;;;;4998212;28;20030;-77
2023/08/18 04:28:11;;;;;;;10.07;6.78;;;18.40;94.50;;;;;;5014254;28;20022;-78
2023/08/18 04:30:37;;;;;;;11.80;6.97;;;18.40;94.50;;;;;;5014212;28;20037;-78
2023/08/18 04:33:03;;;;;;;11.55;8.43;;;18.40;94.50;;;;;;4965868;28;20018;-78
2023/08/18 04:35:29;;;;;;;14.48;7.45;;;18.30;94.50;;;;;;5015442;28;20497;-78
2023/08/18 04:37:55;;;;;;;11.35;7.60;;;18.40;94.50;;;;;;4981911;28;20030;-78
2023/08/18 04:40:21;;;;;;;15.05;8.63;;;18.40;94.50;;;;;;4981486;28;20079;-78
2023/08/18 04:42:47;;;;;;;14.43;9.02;;;18.30;94.50;;;;;;4981779;28;20073;-78
2023/08/18 04:45:12;;;;;;;14.23;8.18;;;18.30;94.50;;;;;;4981427;28;20033;-78
2023/08/18 04:47:38;;;;;;;12.10;8.07;;;18.30;94.60;;;;;;4997634;28;20037;-78
2023/08/18 04:50:05;;;;;;;11.25;7.55;;;18.30;94.60;;;;;;4987266;28;20036;-78
2023/08/18 04:52:31;;;;;;;12.25;8.32;;;18.30;94.60;;;;;;4999310;28;20406;-78
2023/08/18 04:54:57;;;;;;;12.95;8.88;;;18.30;94.70;;;;;;4999348;28;20212;-78
2023/08/18 04:57:22;;;;;;;11.90;8.88;;;18.30;94.80;;;;;;5015125;28;20032;-78
2023/08/18 04:59:48;;;;;;;13.05;8.73;;;18.30;94.80;;;;;;4999818;28;20036;-78
2023/08/18 05:02:13;;;;;;;14.00;9.40;;;18.30;94.80;;;;;;5016295;28;20034;-78
2023/08/18 05:04:39;;;;;;;14.13;9.82;;;18.40;94.90;;;;;;4999698;28;20030;-78
2023/08/18 05:07:07;;;;;;;14.15;9.85;;;18.40;94.90;;;;;;5017000;28;20021;-78
2023/08/18 05:09:34;;;;;;;14.77;9.00;;;18.40;94.90;;;;;;5033207;28;20030;-78
2023/08/18 05:11:59;;;;;;;12.52;8.88;;;18.40;94.90;;;;;;5032754;28;20018;-78
2023/08/18 05:14:25;;;;;;;13.75;10.02;;;18.30;94.90;;;;;;5016823;28;20375;-78
2023/08/18 05:16:51;;;;;;;13.38;9.80;;;18.30;95.00;;;;;;5000390;28;20026;-78
2023/08/18 05:19:16;;;;;;;15.77;9.65;;;18.30;95.00;;;;;;5000815;28;20374;-78
2023/08/18 05:21:42;;;;;;;13.93;9.65;;;18.40;95.10;;;;;;5000236;28;20450;-78
2023/08/18 05:24:07;;;;;;;13.68;10.07;;;18.40;95.10;;;;;;5000162;28;20025;-78
2023/08/18 05:26:33;;;;;;;15.65;10.32;;;18.40;95.10;;;;;;5000178;28;20036;-78
2023/08/18 05:28:58;;;;;;;13.25;9.70;;;18.40;95.10;;;;;;5000073;28;20033;-78
2023/08/18 05:31:24;;;;;;;16.83;11.07;;;18.40;95.10;;;;;;5016214;28;20033;-78
2023/08/18 05:33:50;;;;;;;14.50;10.10;;;18.50;95.10;;;;;;5000111;28;20049;-78
2023/08/18 05:36:16;;;;;;;13.05;9.88;;;18.50;95.10;;;;;;4999978;28;20025;-78
2023/08/18 05:38:42;;;;;;;15.80;9.23;;;18.50;95.10;;;;;;5016448;28;20429;-78
2023/08/18 05:41:13;;;;;;;16.38;10.43;;;18.50;95.20;;;;;;5000131;28;20026;-78
2023/08/18 05:43:40;;;;;;;14.48;9.75;;;18.50;95.20;;;;;;5016249;28;20504;-78
2023/08/18 05:46:06;;;;;;;13.13;9.70;;;18.60;95.20;;;;;;5032658;28;20037;-78
2023/08/18 05:48:32;;;;;;;14.30;9.02;;;18.60;95.30;;;;;;5033808;28;20055;-78
2023/08/18 05:50:58;;;;;;;12.68;9.70;;;18.60;95.30;;;;;;5000288;28;20041;-78
2023/08/18 05:53:25;;;;;;;14.02;8.77;;;18.60;95.30;;;;;;5032240;28;20108;-78
2023/08/18 05:55:52;;;;;;;14.00;9.43;;;18.70;95.40;;;;;;5032482;28;20033;-78
2023/08/18 05:58:18;;;;;;;12.70;8.20;;;18.70;95.40;;;;;;5000153;28;20029;-78
2023/08/18 06:00:43;;;;;;;11.05;8.93;;;18.80;95.40;;;;;;5033565;28;20068;-78
2023/08/18 06:03:09;;;;;;;13.40;8.82;;;18.80;95.40;;;;;;4999625;28;20041;-78
2023/08/18 06:05:35;;;;;;;12.80;8.25;;;18.80;95.40;;;;;;5032247;28;20036;-78
2023/08/18 06:08:00;;;;;;;17.63;9.30;;;18.90;95.40;;;;;;4999578;28;20033;-78
2023/08/18 06:10:26;;;;;;;12.10;9.05;;;18.90;95.40;;;;;;4999375;28;20485;-78
2023/08/18 06:12:52;;;;;;;14.98;9.20;;;18.90;95.30;;;;;;4999555;28;20030;-78
2023/08/18 06:15:19;;;;;;;12.98;9.00;;;18.90;95.30;;;;;;5033528;28;20029;-79
2023/08/18 06:17:45;;;;;;;18.10;8.80;;;18.90;95.30;;;;;;5016208;28;20378;-79
2023/08/18 06:20:11;;;;;;;25.52;11.63;;;19.00;95.20;;;;;;4987145;28;20087;-78
2023/08/18 06:22:37;;;;;;;20.55;10.48;;;19.00;95.20;;;;;;4998871;28;20029;-77
2023/08/18 06:25:06;;;;;;;25.10;11.05;;;19.10;95.20;;;;;;5015172;28;20025;-78
2023/08/18 06:27:32;;;;;;;27.58;12.82;;;19.00;95.10;;;;;;5015610;28;20064;-78
2023/08/18 06:29:57;;;;;;;16.77;9.77;;;19.10;95.20;;;;;;5015956;28;20126;-78
2023/08/18 06:32:23;;;;;;;18.00;10.13;;;19.10;95.10;;;;;;5015812;28;20033;-78
2023/08/18 06:34:50;;;;;;;16.52;9.68;;;19.20;95.10;;;;;;4999459;28;20018;-78
2023/08/18 06:37:16;;;;;;;19.75;10.27;;;19.20;95.10;;;;;;5015511;28;20017;-78
2023/08/18 06:39:41;;;;;;;21.92;9.82;;;19.20;95.10;;;;;;5015449;28;20474;-78
2023/08/18 06:42:07;;;;;;;16.02;8.93;;;19.30;95.10;;;;;;5032217;28;20036;-78
2023/08/18 06:44:34;;;;;;;17.25;9.63;;;19.30;95.00;;;;;;4999164;28;20037;-78
2023/08/18 06:47:00;;;;;;;15.38;9.55;;;19.40;94.90;;;;;;5015698;28;20470;-78
2023/08/18 06:49:26;;;;;;;15.35;8.93;;;19.40;94.90;;;;;;5015468;28;20076;-78
2023/08/18 06:51:52;;;;;;;16.33;10.00;;;19.40;94.80;;;;;;4999311;28;20050;-78
2023/08/18 06:54:17;;;;;;;20.13;10.35;;;19.50;94.80;;;;;;5015995;28;20037;-78
2023/08/18 06:56:44;;;;;;;15.48;7.97;;;19.50;94.70;;;;;;5015466;28;20026;-78
2023/08/18 06:59:12;;;;;;;13.40;8.38;;;19.50;94.70;;;;;;5015576;28;20505;-79
2023/08/18 07:01:38;;;;;;;15.45;9.80;;;19.60;94.70;;;;;;5031795;28;20025;-78
2023/08/18 07:04:04;;;;;;;13.25;8.70;;;19.70;94.70;;;;;;5015544;28;20032;-78
2023/08/18 07:06:33;;;;;;;14.18;8.38;;;19.70;95.00;;;;;;4999135;28;20038;-78
2023/08/18 07:08:59;;;;;;;12.93;8.68;;;19.80;94.90;;;;;;5015313;28;20113;-78
2023/08/18 07:11:27;;;;;;;12.73;8.02;;;19.80;94.60;;;;;;5031458;28;20036;-78
2023/08/18 07:13:52;;;;;;;14.30;8.45;;;19.90;94.60;;;;;;5015170;28;20057;-78
2023/08/18 07:16:18;;;;;;;12.50;8.27;;;20.00;94.60;;;;;;5015215;28;20022;-78
2023/08/18 07:18:44;;;;;;;14.35;8.45;;;20.00;94.60;;;;;;5015224;28;20478;-78
2023/08/18 07:21:09;;;;;;;11.93;8.23;;;20.10;94.50;;;;;;5015003;28;20174;-78
2023/08/18 07:23:35;;;;;;;13.82;8.48;;;20.20;94.50;;;;;;4998852;28;20452;-79
2023/08/18 07:26:02;;;;;;;16.70;7.97;;;20.30;94.40;;;;;;4998778;28;20036;-78
2023/08/18 07:28:28;;;;;;;13.35;8.75;;;20.30;94.20;;;;;;5031511;28;20028;-79
2023/08/18 07:30:53;;;;;;;13.98;9.07;;;20.40;94.10;;;;;;4998740;28;20120;-78
2023/08/18 07:33:20;;;;;;;13.43;9.43;;;20.40;94.00;;;;;;4998747;28;20409;-79
2023/08/18 07:35:46;;;;;;;14.93;9.50;;;20.40;93.90;;;;;;5017580;28;20026;-78
2023/08/18 07:38:11;;;;;;;13.68;10.15;;;20.40;93.80;;;;;;5018882;28;20025;-78
2023/08/18 07:40:37;;;;;;;14.93;10.30;;;20.50;93.80;;;;;;5018626;28;20033;-79
2023/08/18 07:43:03;;;;;;;15.10;10.07;;;20.50;93.70;;;;;;5018436;28;20038;-79
2023/08/18 07:45:29;;;;;;;13.35;8.65;;;20.60;93.70;;;;;;5002254;28;20029;-78
2023/08/18 07:47:55;;;;;;;12.50;9.13;;;20.70;93.60;;;;;;5002119;28;20389;-78
2023/08/18 07:50:20;;;;;;;11.63;8.90;;;20.70;93.50;;;;;;5018237;28;20033;-79
2023/08/18 07:52:46;;;;;;;14.25;8.85;;;20.80;93.50;;;;;;5018168;28;20410;-79
2023/08/18 07:55:12;;;;;;;11.82;8.32;;;20.90;93.50;;;;;;5034709;28;20049;-78
2023/08/18 07:57:39;;;;;;;12.48;9.20;;;20.90;93.40;;;;;;5035903;28;20428;-78
2023/08/18 08:00:27;;;;;;;11.65;8.90;;;21.00;93.30;;;;;;5035766;28;20021;-79
2023/08/18 08:02:52;;;;;;;11.27;8.25;;;21.10;93.30;;;;;;5020686;28;20037;-79
2023/08/18 08:05:19;;;;;;;11.30;8.13;;;21.10;93.20;;;;;;5017915;28;20079;-78
2023/08/18 08:07:45;;;;;;;10.10;7.60;;;21.20;93.10;;;;;;5018033;28;20034;-78
2023/08/18 08:10:12;;;;;;;13.63;8.60;;;21.20;93.00;;;;;;5035665;28;20477;-79
2023/08/18 08:12:38;;;;;;;11.80;7.50;;;21.30;92.90;;;;;;5035756;28;20057;-78
2023/08/18 08:15:05;;;;;;;11.43;7.82;;;21.30;92.80;;;;;;5018132;28;20547;-79
2023/08/18 08:17:32;;;;;;;12.98;8.80;;;21.30;92.70;;;;;;5034425;28;20026;-80
2023/08/18 08:20:15;;;;;;;13.60;9.10;;;21.40;92.70;;;;;;5035673;28;20029;-80
2023/08/18 08:22:41;;;;;;;13.40;8.82;;;21.50;92.60;;;;;;5035481;28;20036;-78
2023/08/18 08:25:08;;;;;;;14.00;9.18;;;21.60;92.40;;;;;;5001136;28;20030;-78
2023/08/18 08:27:34;;;;;;;12.85;9.02;;;21.60;92.30;;;;;;5034135;28;20041;-78
2023/08/18 08:30:00;;;;;;;13.80;9.10;;;21.60;92.20;;;;;;5035514;28;20026;-79
2023/08/18 08:32:26;;;;;;;13.50;8.30;;;21.70;92.10;;;;;;5017808;28;20029;-78
2023/08/18 08:34:51;;;;;;;11.82;8.27;;;21.80;92.00;;;;;;5017633;28;20470;-78
2023/08/18 08:37:18;;;;;;;11.02;8.57;;;21.80;91.90;;;;;;5034964;28;20030;-79
2023/08/18 08:39:44;;;;;;;9.90;7.03;;;21.80;91.90;;;;;;5033817;28;20022;-78
2023/08/18 08:42:10;;;;;;;12.60;7.78;;;21.90;91.80;;;;;;5035446;28;20021;-78
2023/08/18 08:44:36;;;;;;;11.07;8.30;;;21.90;91.70;;;;;;5017366;28;20373;-78
2023/08/18 08:47:02;;;;;;;14.02;8.20;;;21.90;91.60;;;;;;5016307;28;20033;-78
2023/08/18 08:49:30;;;;;;;14.27;8.80;;;22.00;91.50;;;;;;5033978;28;20021;-79
2023/08/18 08:52:01;;;;;;;12.27;9.18;;;22.00;91.50;;;;;;5017113;28;20500;-79
2023/08/18 08:54:30;;;;;;;12.55;8.52;;;22.00;91.30;;;;;;5033568;28;20059;-79
2023/08/18 08:56:56;;;;;;;10.90;8.02;;;22.00;91.30;;;;;;5034739;28;20025;-78
2023/08/18 08:59:22;;;;;;;10.88;8.68;;;22.10;91.30;;;;;;5034705;28;20064;-79
2023/08/18 09:01:48;;;;;;;12.05;8.07;;;22.20;91.30;;;;;;5033338;28;20021;-79
2023/08/18 09:04:15;;;;;;;10.85;8.15;;;22.20;91.30;;;;;;5017101;28;20038;-79
2023/08/18 09:06:41;;;;;;;11.00;7.53;;;22.30;91.20;;;;;;5033367;28;20481;-79
2023/08/18 09:09:07;;;;;;;9.95;6.80;;;22.40;91.00;;;;;;5033355;28;20044;-80
2023/08/18 09:11:47;;;;;;;9.35;7.15;;;22.50;90.90;;;;;;5034502;28;20018;-80
2023/08/18 09:14:14;;;;;;;11.57;8.93;;;22.50;90.60;;;;;;5033548;28;20390;-80
2023/08/18 09:16:39;;;;;;;11.60;8.30;;;22.60;90.40;;;;;;5017002;28;20116;-80
2023/08/18 09:19:05;;;;;;;10.07;7.10;;;22.60;90.30;;;;;;5016786;28;20053;-79
2023/08/18 09:21:34;;;;;;;10.68;7.20;;;22.60;90.10;;;;;;5017337;28;20056;-79
2023/08/18 09:24:00;;;;;;;11.27;7.57;;;22.60;90.00;;;;;;5000814;28;20386;-80
2023/08/18 09:26:28;;;;;;;10.02;6.20;;;22.70;90.00;;;;;;5033838;28;20028;-79
2023/08/18 09:28:54;;;;;;;10.70;6.78;;;22.70;90.00;;;;;;5000054;28;20478;-79
2023/08/18 09:31:20;;;;;;;8.80;6.40;;;22.70;90.00;;;;;;5016450;28;20032;-79
2023/08/18 09:33:45;;;;;;;7.05;5.18;;;22.80;90.10;;;;;;5016430;28;20021;-78
2023/08/18 09:36:12;;;;;;;8.27;6.07;;;22.90;90.10;;;;;;5032548;28;20027;-79
2023/08/18 09:38:41;;;;;;;9.95;6.93;;;23.00;90.10;;;;;;5032814;28;20047;-80
2023/08/18 09:41:08;;;;;;;9.00;6.25;;;23.10;90.00;;;;;;5016727;28;20563;-80
2023/08/18 09:43:35;;;;;;;9.20;6.72;;;23.20;89.90;;;;;;5016600;28;20129;-80
2023/08/18 09:46:04;;;;;;;9.02;6.80;;;23.30;89.50;;;;;;5016451;28;20036;-79
2023/08/18 09:48:35;;;;;;;7.93;5.95;;;23.50;88.80;;;;;;5016660;28;20079;-81
2023/08/18 09:51:05;;;;;;;8.68;6.00;;;23.50;88.20;;;;;;5033773;28;20466;-79
2023/08/18 09:53:32;;;;;;;9.27;6.82;;;23.60;87.90;;;;;;5032392;28;20176;-79
2023/08/18 09:56:11;;;;;;;8.00;6.07;;;23.70;87.50;;;;;;4999770;28;20156;-80
2023/08/18 09:58:43;;;;;;;8.90;6.40;;;23.80;87.40;;;;;;5032306;28;20108;-80
2023/08/18 10:01:10;;;;;;;8.48;5.90;;;23.90;87.20;;;;;;5016027;28;20036;-79
2023/08/18 10:03:38;;;;;;;7.97;5.72;;;24.00;87.40;;;;;;5032471;28;20026;-79
2023/08/18 10:06:07;;;;;;;11.20;6.00;;;24.10;86.40;;;;;;4999885;28;20037;-79
2023/08/18 10:08:33;;;;;;;6.70;5.07;;;24.30;86.40;;;;;;5016136;28;20448;-79
2023/08/18 10:11:00;;;;;;;8.68;5.05;;;24.40;86.30;;;;;;5032187;28;20116;-79
2023/08/18 10:13:29;;;;;;;6.40;4.25;;;24.60;86.10;;;;;;5033574;28;20029;-80
2023/08/18 10:15:55;;;;;;;8.50;5.22;;;24.90;86.00;;;;;;5000410;28;20052;-79
2023/08/18 10:18:23;;;;;;;7.32;5.38;;;25.10;85.30;;;;;;5015811;28;20025;-79
2023/08/18 10:20:53;;;;;;;8.43;4.85;;;25.20;84.30;;;;;;5015847;28;20036;-79
2023/08/18 10:23:22;;;;;;;6.50;4.00;;;25.40;83.30;;;;;;5015713;28;20057;-80
2023/08/18 10:25:52;;;;;;;7.75;5.00;;;25.50;82.70;;;;;;5032420;28;20063;-80
2023/08/18 10:28:19;;;;;;;7.43;5.45;;;25.60;81.90;;;;;;5033237;28;20041;-80
2023/08/18 10:31:03;;;;;;;6.65;4.63;;;25.80;81.10;;;;;;5015632;28;20106;-81
2023/08/18 10:33:43;;;;;;;4.72;3.42;;;26.00;80.80;;;;;;5032361;28;20448;-80
2023/08/18 10:36:10;;;;;;;5.97;3.80;;;26.40;80.50;;;;;;5033220;28;20057;-80
2023/08/18 10:38:38;;;;;;;5.15;3.53;;;26.80;81.00;;;;;;5031890;28;20029;-80
2023/08/18 10:41:04;;;;;;;6.55;4.28;;;27.20;80.60;;;;;;5015887;28;20109;-80
2023/08/18 10:43:47;;;;;;;4.55;3.67;;;27.60;80.30;;;;;;4999230;28;20038;-80
2023/08/18 10:46:13;;;;;;;6.53;3.80;;;28.20;79.20;;;;;;5032003;28;20022;-80
2023/08/18 10:48:39;;;;;;;4.20;3.45;;;28.80;79.30;;;;;;5031804;28;20030;-80
2023/08/18 10:51:07;;;;;;;4.70;3.25;;;29.40;78.60;;;;;;5032177;28;20378;-81
2023/08/18 10:53:36;;;;;;;5.15;3.22;;;30.00;76.80;;;;;;5031726;28;20429;-81
2023/08/18 10:56:03;;;;;;;3.95;2.70;;;30.50;75.30;;;;;;5031818;28;20022;-81
2023/08/18 10:58:29;;;;;;;4.93;2.70;;;31.10;74.10;;;;;;5015709;28;20410;-80
2023/08/18 11:00:55;;;;;;;4.40;3.13;;;31.50;72.90;;;;;;5031680;28;20068;-81
2023/08/18 11:03:21;;;;;;;3.13;2.42;;;32.10;70.30;;;;;;5033343;28;20040;-80
2023/08/18 11:05:46;;;;;;;3.15;2.40;;;32.50;69.00;;;;;;5015406;28;20038;-79
2023/08/18 11:08:13;;;;;;;5.75;2.65;;;33.00;68.00;;;;;;5032994;28;20036;-80
2023/08/18 11:10:40;;;;;;;3.60;2.47;;;33.50;66.50;;;;;;5033909;28;20389;-82
2023/08/18 11:13:22;;;;;;;2.42;2.00;;;34.00;65.30;;;;;;5019473;28;20030;-82
2023/08/18 11:15:54;;;;;;;4.05;2.67;;;34.40;62.70;;;;;;5019756;28;20029;-82
2023/08/18 11:18:21;;;;;;;3.65;2.38;;;34.80;61.90;;;;;;5002830;28;20116;-83
2023/08/18 11:20:48;;;;;;;3.05;2.60;;;35.10;60.00;;;;;;5019138;28;20021;-82
2023/08/18 11:23:14;;;;;;;3.72;2.20;;;35.50;59.40;;;;;;5035451;28;20021;-82
2023/08/18 11:25:40;;;;;;;3.60;2.22;;;35.80;58.80;;;;;;5035312;28;20470;-81
2023/08/18 11:28:05;;;;;;;4.75;2.33;;;36.10;58.20;;;;;;5019070;28;20029;-82
2023/08/18 11:30:32;;;;;;;3.10;2.45;;;36.40;57.60;;;;;;5015996;28;20120;-81
2023/08/18 11:32:57;;;;;;;4.03;2.55;;;36.70;56.50;;;;;;5002333;28;20041;-83
2023/08/18 11:35:25;;;;;;;2.92;2.25;;;37.10;55.30;;;;;;5002208;28;20036;-81
2023/08/18 11:37:52;;;;;;;3.45;2.38;;;37.30;54.30;;;;;;5018922;28;20497;-83
2023/08/18 11:40:20;;;;;;;3.08;2.20;;;37.50;53.20;;;;;;5018817;28;20034;-80
2023/08/18 11:42:48;;;;;;;3.28;2.47;;;37.70;53.00;;;;;;5018864;28;20466;-82
2023/08/18 11:45:24;;;;;;;4.63;2.20;;;37.80;52.70;;;;;;5035092;28;20029;-83
2023/08/18 11:48:03;;;;;;;2.47;2.08;;;38.00;52.40;;;;;;5018359;28;20026;-82
2023/08/18 11:50:36;;;;;;;3.25;2.33;;;38.20;51.80;;;;;;5034720;28;20032;-82
2023/08/18 11:53:04;;;;;;;3.15;2.25;;;38.50;51.50;;;;;;5018155;28;20393;-82
2023/08/18 11:55:35;;;;;;;3.33;2.00;;;38.70;51.10;;;;;;5018405;28;20026;-79
2023/08/18 11:58:05;;;;;;;3.25;2.30;;;39.00;50.70;;;;;;5035029;28;20026;-81
2023/08/18 12:00:36;;;;;;;4.63;2.53;;;39.20;50.90;;;;;;5035897;28;20025;-81
2023/08/18 12:03:04;;;;;;;4.13;2.42;;;39.40;50.30;;;;;;5018660;28;20075;-81
2023/08/18 12:05:30;;;;;;;2.33;1.75;;;39.60;49.80;;;;;;5018484;28;20030;-81
2023/08/18 12:07:59;;;;;;;5.28;2.50;;;39.80;49.40;;;;;;5035823;28;20517;-81
2023/08/18 12:10:25;;;;;;;4.00;2.40;;;40.10;49.10;;;;;;5035801;28;20029;-81
2023/08/18 12:12:53;;;;;;;2.50;2.08;;;40.20;48.70;;;;;;5036150;28;20032;-82
2023/08/18 12:15:20;;;;;;;2.28;1.67;;;40.30;48.10;;;;;;5034514;28;20025;-81
2023/08/18 12:17:46;;;;;;;3.40;2.38;;;40.50;48.10;;;;;;5035575;28;20029;-82
2023/08/18 12:20:12;;;;;;;2.92;2.05;;;40.70;47.90;;;;;;5001481;28;20037;-82
2023/08/18 12:22:38;;;;;;;2.55;2.20;;;40.90;47.70;;;;;;5033060;28;20025;-82
2023/08/18 12:25:05;;;;;;;3.60;2.65;;;41.00;46.90;;;;;;5035732;28;20033;-82
2023/08/18 12:27:33;;;;;;;3.90;2.85;;;41.10;46.20;;;;;;5035925;28;20021;-82
2023/08/18 12:30:03;;;;;;;4.22;2.90;;;41.10;46.10;;;;;;5017905;28;20036;-82
2023/08/18 12:32:30;;;;;;;4.80;2.30;;;41.10;46.10;;;;;;5035450;28;20021;-83
2023/08/18 12:34:57;;;;;;;3.72;3.03;;;41.10;46.00;;;;;;5035465;28;20469;-84
2023/08/18 12:37:24;;;;;;;3.58;2.70;;;41.10;45.40;;;;;;5017661;28;20473;-83
2023/08/18 12:39:50;;;;;;;3.88;2.53;;;41.00;45.50;;;;;;5018061;28;20041;-80
2023/08/18 12:42:16;;;;;;;2.30;1.90;;;40.90;45.10;;;;;;5001320;28;20053;-80